METAR Data
IDs: Format: Raw Decoded Include TAF

Data at: 1909 UTC 12 Dec 2018

METAR for:KCVG (Cincinnati Intl, KY, US)
Text:KCVG 121852Z 21010KT 10SM OVC060 09/M02 A2991 RMK AO2 SLP129 T00891022
Temperature: 8.9°C ( 48°F)
Dewpoint: -2.2°C ( 28°F) [RH = 46%]
Pressure (altimeter):29.91 inches Hg (1013.0 mb) [Sea level pressure: 1012.9 mb]
Winds:from the SSW (210 degrees) at 12 MPH (10 knots; 5.1 m/s)
Visibility:10 or more sm (16+ km)
Ceiling:6000 feet AGL
Clouds: overcast cloud deck at 6000 feet AGL